createdAt,value
2022-10-18T00:00:18.652Z,10.70
2022-10-18T00:02:45.447Z,10.70
2022-10-18T00:05:12.208Z,10.70
2022-10-18T00:07:38.932Z,10.70
2022-10-18T00:10:06.269Z,10.70
2022-10-18T00:12:35.383Z,10.70
2022-10-18T00:15:03.283Z,10.70
2022-10-18T00:17:30.426Z,10.80
2022-10-18T00:19:57.361Z,10.80
2022-10-18T00:22:25.339Z,10.80
2022-10-18T00:24:52.194Z,10.80
2022-10-18T00:27:19.289Z,10.80
2022-10-18T00:29:46.103Z,10.70
2022-10-18T00:32:12.907Z,10.70
2022-10-18T00:34:40.327Z,10.60
2022-10-18T00:37:07.403Z,10.60
2022-10-18T00:39:34.270Z,10.50
2022-10-18T00:42:01.135Z,10.40
2022-10-18T00:44:27.816Z,10.40
2022-10-18T00:46:59.706Z,10.30
2022-10-18T00:49:56.874Z,10.30
2022-10-18T00:52:29.211Z,10.30
2022-10-18T00:54:57.360Z,10.30
2022-10-18T00:57:25.250Z,10.30
2022-10-18T00:59:52.881Z,10.30
2022-10-18T01:02:20.457Z,10.20
2022-10-18T01:04:48.001Z,10.20
2022-10-18T01:07:57.831Z,10.20
2022-10-18T01:10:34.774Z,10.10
2022-10-18T01:13:32.652Z,10.20
2022-10-18T01:16:30.933Z,10.10
2022-10-18T01:19:22.064Z,10.10
2022-10-18T01:22:02.001Z,10.10
2022-10-18T01:28:01.378Z,10.10
2022-10-18T01:30:46.256Z,10.00
2022-10-18T01:33:46.659Z,10.00
2022-10-18T01:36:21.216Z,10.10
2022-10-18T01:38:51.095Z,10.10
2022-10-18T01:41:20.373Z,10.10
2022-10-18T01:43:50.291Z,10.10
2022-10-18T01:46:21.247Z,10.10
2022-10-18T01:48:49.132Z,10.10
2022-10-18T01:51:20.044Z,10.00
2022-10-18T01:53:46.909Z,10.00
2022-10-18T01:56:25.628Z,9.90
2022-10-18T01:58:55.202Z,9.90
2022-10-18T02:02:02.450Z,9.90
2022-10-18T02:04:44.320Z,9.90
2022-10-18T02:07:55.440Z,9.90
2022-10-18T02:10:48.680Z,9.80
2022-10-18T02:13:18.794Z,9.80
2022-10-18T02:15:49.780Z,9.80
2022-10-18T02:18:24.476Z,9.70
2022-10-18T02:20:52.910Z,9.70
2022-10-18T02:23:23.588Z,9.70
2022-10-18T02:25:50.895Z,9.60
2022-10-18T02:28:17.923Z,9.60
2022-10-18T02:31:27.215Z,9.70
2022-10-18T02:33:56.976Z,9.70
2022-10-18T02:36:33.389Z,9.80
2022-10-18T02:39:07.624Z,9.80
2022-10-18T02:41:34.577Z,9.80
2022-10-18T02:44:01.342Z,9.80
2022-10-18T02:46:28.212Z,9.80
2022-10-18T02:48:54.938Z,9.80
2022-10-18T02:51:21.867Z,9.80
2022-10-18T02:53:48.667Z,9.80
2022-10-18T02:56:15.408Z,9.80
2022-10-18T02:58:42.166Z,9.80
2022-10-18T03:01:08.989Z,9.90
2022-10-18T03:03:35.817Z,9.90
2022-10-18T03:06:02.700Z,9.90
2022-10-18T03:08:29.502Z,10.00
2022-10-18T03:10:56.222Z,10.00
2022-10-18T03:13:22.979Z,10.00
2022-10-18T03:15:49.772Z,10.00
2022-10-18T03:18:16.582Z,10.00
2022-10-18T03:20:43.359Z,10.00
2022-10-18T03:23:10.184Z,9.90
2022-10-18T03:25:36.932Z,9.90
2022-10-18T03:28:03.860Z,9.90
2022-10-18T03:30:30.574Z,9.90
2022-10-18T03:32:57.297Z,9.80
2022-10-18T03:35:24.064Z,9.80
2022-10-18T03:37:50.915Z,9.90
2022-10-18T03:40:17.797Z,9.90
2022-10-18T03:42:44.551Z,9.80
2022-10-18T03:45:11.412Z,9.80
2022-10-18T03:47:38.152Z,9.80
2022-10-18T03:50:05.359Z,9.80
2022-10-18T03:52:32.455Z,9.80
2022-10-18T03:54:59.432Z,9.80
2022-10-18T03:57:26.169Z,9.80
2022-10-18T03:59:53.165Z,9.90
2022-10-18T04:02:19.890Z,10.00
2022-10-18T04:04:46.664Z,10.00
2022-10-18T04:07:13.478Z,10.10
2022-10-18T04:09:40.202Z,10.10
2022-10-18T04:12:06.964Z,10.10
2022-10-18T04:14:33.752Z,10.20
2022-10-18T04:17:00.551Z,10.20
2022-10-18T04:19:27.799Z,10.30
2022-10-18T04:21:54.545Z,10.30
2022-10-18T04:24:21.342Z,10.30
2022-10-18T04:26:48.068Z,10.30
2022-10-18T04:29:14.922Z,10.30
2022-10-18T04:31:41.615Z,10.30
2022-10-18T04:34:09.122Z,10.40
2022-10-18T04:36:35.878Z,10.40
2022-10-18T04:39:02.877Z,10.40
2022-10-18T04:41:29.677Z,10.40
2022-10-18T04:43:56.424Z,10.40
2022-10-18T04:46:23.172Z,10.40
2022-10-18T04:48:49.930Z,10.40
2022-10-18T04:51:16.753Z,10.50
2022-10-18T08:58:21.542Z,15.30
2022-10-18T09:01:03.340Z,15.30
2022-10-18T09:03:54.016Z,15.30
2022-10-18T09:10:30.940Z,15.40
2022-10-18T09:17:06.074Z,15.90
2022-10-18T09:20:10.292Z,16.10
2022-10-18T09:23:18.017Z,16.20
2022-10-18T09:25:57.794Z,16.50
2022-10-18T09:28:57.326Z,16.70
2022-10-18T09:31:56.734Z,16.90
2022-10-18T09:34:36.032Z,17.10
2022-10-18T09:37:03.694Z,17.30
2022-10-18T09:39:35.266Z,17.50
2022-10-18T09:42:44.280Z,17.70
2022-10-18T09:45:31.173Z,17.80
2022-10-18T09:48:22.810Z,17.90
2022-10-18T09:51:01.702Z,18.10
2022-10-18T09:53:58.008Z,18.20
2022-10-18T09:56:30.231Z,18.40
2022-10-18T09:58:57.203Z,18.50
2022-10-18T10:01:30.404Z,18.60
2022-10-18T10:03:57.728Z,18.60
2022-10-18T10:18:22.593Z,19.10
2022-10-18T10:20:52.869Z,19.20
2022-10-18T10:23:26.853Z,19.30
2022-10-18T10:25:56.654Z,19.40
2022-10-18T10:28:35.974Z,19.50
2022-10-18T10:31:21.269Z,19.60
2022-10-18T10:33:48.374Z,19.70
2022-10-18T10:36:20.979Z,19.70
2022-10-18T10:39:03.531Z,19.80
2022-10-18T10:41:33.789Z,19.80
2022-10-18T10:44:03.759Z,19.90
2022-10-18T10:46:35.490Z,20.00
2022-10-18T10:52:08.689Z,20.20
2022-10-18T10:54:50.354Z,20.20
2022-10-18T10:57:28.811Z,20.30
2022-10-18T10:59:59.720Z,20.50
2022-10-18T11:02:34.698Z,20.70
2022-10-18T11:05:26.510Z,20.70
2022-10-18T11:07:58.165Z,20.90
2022-10-18T11:10:28.314Z,21.10
2022-10-18T11:13:26.804Z,21.10
2022-10-18T11:16:05.416Z,21.20
2022-10-18T11:18:35.198Z,21.20
2022-10-18T11:21:08.233Z,21.20
2022-10-18T11:23:37.836Z,21.20
2022-10-18T11:26:13.727Z,21.30
2022-10-18T11:28:55.410Z,21.40
2022-10-18T11:31:22.094Z,21.40
2022-10-18T11:34:32.802Z,21.50
2022-10-18T11:37:37.507Z,21.70
2022-10-18T11:40:33.098Z,21.80
2022-10-18T11:43:20.986Z,21.70
2022-10-18T11:46:03.489Z,21.70
2022-10-18T11:48:45.196Z,21.70
2022-10-18T11:51:14.946Z,21.70
2022-10-18T11:54:05.887Z,21.80
2022-10-18T11:56:50.107Z,21.80
2022-10-18T11:59:38.195Z,21.90
2022-10-18T12:02:39.163Z,21.90
2022-10-18T12:05:24.200Z,22.10
2022-10-18T12:08:13.378Z,22.10
2022-10-18T12:10:52.563Z,22.10
2022-10-18T12:13:56.890Z,22.20
2022-10-18T12:16:49.347Z,22.30
2022-10-18T12:19:26.997Z,22.40
2022-10-18T12:21:57.089Z,22.30
2022-10-18T12:24:30.142Z,22.30
2022-10-18T12:27:01.545Z,22.30
2022-10-18T12:29:50.205Z,22.40
2022-10-18T12:32:24.818Z,22.50
2022-10-18T12:35:11.151Z,22.70
2022-10-18T12:37:50.138Z,22.60
2022-10-18T12:40:40.678Z,22.30
2022-10-18T12:43:10.986Z,22.20
2022-10-18T12:45:57.839Z,22.10
2022-10-18T12:48:29.606Z,21.90
2022-10-18T12:51:06.140Z,21.80
2022-10-18T12:53:34.607Z,21.80
2022-10-18T12:56:30.672Z,21.80
2022-10-18T12:59:15.862Z,21.80
2022-10-18T13:01:51.712Z,21.70
2022-10-18T13:04:44.986Z,21.60
2022-10-18T13:07:19.736Z,21.60
2022-10-18T13:10:12.376Z,21.40
2022-10-18T13:13:13.213Z,21.30
2022-10-18T13:16:02.151Z,21.30
2022-10-18T13:18:51.494Z,21.30
2022-10-18T13:21:42.833Z,21.30
2022-10-18T13:24:25.941Z,21.50
2022-10-18T13:27:35.603Z,21.70
2022-10-18T13:30:17.951Z,21.70
2022-10-18T13:32:53.356Z,21.70
2022-10-18T13:35:38.574Z,21.50
2022-10-18T13:38:21.512Z,21.50
2022-10-18T13:41:03.308Z,21.50
2022-10-18T13:43:52.230Z,21.70
2022-10-18T13:46:21.028Z,21.80
2022-10-18T13:48:53.633Z,22.00
2022-10-18T13:51:20.373Z,22.10
2022-10-18T13:54:00.345Z,22.10
2022-10-18T13:56:36.457Z,22.20
2022-10-18T13:59:29.362Z,22.00
2022-10-18T14:02:36.447Z,21.80
2022-10-18T14:05:44.987Z,21.90
2022-10-18T14:08:20.434Z,22.00
2022-10-18T14:11:27.748Z,22.00
2022-10-18T14:14:13.726Z,22.20
2022-10-18T14:16:48.893Z,22.30
2022-10-18T14:19:36.579Z,22.20
2022-10-18T14:22:23.575Z,22.20
2022-10-18T14:24:54.273Z,22.00
2022-10-18T14:27:23.783Z,21.70
2022-10-18T14:30:07.620Z,21.60
2022-10-18T14:32:35.260Z,21.60
2022-10-18T14:35:31.180Z,21.60
2022-10-18T14:37:51.783Z,21.50
2022-10-18T14:40:39.065Z,21.40
2022-10-18T14:43:13.798Z,21.20
2022-10-18T14:45:41.768Z,21.10
2022-10-18T14:48:24.538Z,20.90
2022-10-18T14:51:00.643Z,20.70
2022-10-18T14:53:32.564Z,20.50
2022-10-18T14:56:00.965Z,20.30
2022-10-18T14:58:28.218Z,20.00
2022-10-18T15:00:55.203Z,19.60
2022-10-18T15:06:56.854Z,19.20
2022-10-18T15:09:24.846Z,19.10
2022-10-18T15:11:54.801Z,18.90
2022-10-18T15:14:22.329Z,18.70
2022-10-18T15:16:52.282Z,18.50
2022-10-18T15:19:21.828Z,18.40
2022-10-18T15:22:30.247Z,18.30
2022-10-18T15:25:32.099Z,18.20
2022-10-18T15:28:00.531Z,18.00
2022-10-18T15:30:36.627Z,17.90
2022-10-18T15:33:09.712Z,17.80
2022-10-18T15:35:38.531Z,17.80
2022-10-18T15:38:27.821Z,17.70
2022-10-18T15:40:55.199Z,17.60
2022-10-18T15:43:27.903Z,17.50
2022-10-18T15:46:06.716Z,17.40
2022-10-18T15:48:38.287Z,17.40
2022-10-18T15:51:25.255Z,17.30
2022-10-18T15:53:53.959Z,17.30
2022-10-18T15:56:33.734Z,17.30
2022-10-18T15:59:06.249Z,17.30
2022-10-18T16:01:36.865Z,17.30
2022-10-18T16:04:13.761Z,17.20
2022-10-18T16:06:40.733Z,17.20
2022-10-18T16:09:13.097Z,17.10
2022-10-18T16:11:39.886Z,17.00
2022-10-18T16:14:06.692Z,16.90
2022-10-18T16:16:33.598Z,16.80
2022-10-18T16:19:00.887Z,16.70
2022-10-18T16:21:30.645Z,16.60
2022-10-18T16:23:57.866Z,16.50
2022-10-18T16:26:26.878Z,16.50
2022-10-18T16:28:54.935Z,16.40
2022-10-18T16:31:31.750Z,16.30
2022-10-18T16:33:58.977Z,16.20
2022-10-18T16:36:29.150Z,16.20
2022-10-18T16:38:57.123Z,16.20
2022-10-18T16:41:24.381Z,16.10
2022-10-18T16:43:51.565Z,16.10
2022-10-18T16:46:27.893Z,16.10
2022-10-18T16:48:55.383Z,16.10
2022-10-18T16:51:22.532Z,16.00
2022-10-18T16:56:33.907Z,15.90
2022-10-18T16:59:00.906Z,15.90
2022-10-18T17:01:27.999Z,15.90
2022-10-18T17:03:55.367Z,15.80
2022-10-18T17:06:33.020Z,15.80
2022-10-18T17:09:00.131Z,15.80
2022-10-18T17:11:28.510Z,15.70
2022-10-18T17:13:55.805Z,15.60
2022-10-18T17:16:34.036Z,15.60
2022-10-18T17:19:03.812Z,15.50
2022-10-18T17:21:31.567Z,15.50
2022-10-18T17:24:06.156Z,15.40
2022-10-18T17:26:34.251Z,15.40
2022-10-18T17:29:05.416Z,15.40
2022-10-18T17:31:32.716Z,15.30
2022-10-18T17:34:01.954Z,15.30
2022-10-18T17:36:33.111Z,15.20
2022-10-18T17:39:00.075Z,15.20
2022-10-18T17:41:27.402Z,15.10
2022-10-18T17:43:54.233Z,15.10
2022-10-18T17:46:21.129Z,15.00
2022-10-18T17:48:47.969Z,15.00
2022-10-18T17:51:16.417Z,14.90
2022-10-18T17:53:43.823Z,14.90
2022-10-18T17:56:12.093Z,14.80
2022-10-18T17:58:43.552Z,14.70
2022-10-18T18:01:20.844Z,14.70
2022-10-18T18:03:48.033Z,14.60
2022-10-18T18:06:23.997Z,14.60
2022-10-18T18:08:50.842Z,14.60
2022-10-18T18:11:18.208Z,14.60
2022-10-18T18:13:45.101Z,14.50
2022-10-18T18:16:13.081Z,14.50
2022-10-18T18:18:39.981Z,14.50
2022-10-18T18:21:06.729Z,14.40
2022-10-18T18:23:33.479Z,14.40
2022-10-18T18:26:00.339Z,14.30
2022-10-18T18:28:27.345Z,14.30
2022-10-18T18:30:54.133Z,14.20
2022-10-18T18:33:20.885Z,14.20
2022-10-18T18:35:58.352Z,14.20
2022-10-18T18:38:28.393Z,14.20
2022-10-18T18:41:13.359Z,14.20
2022-10-18T18:43:43.301Z,14.20
2022-10-18T18:46:11.010Z,14.20
2022-10-18T18:48:38.039Z,14.20
2022-10-18T18:51:11.769Z,14.20
2022-10-18T18:53:43.062Z,14.30
2022-10-18T18:56:15.350Z,14.30
2022-10-18T18:58:44.033Z,14.30
2022-10-18T19:01:19.590Z,14.30
2022-10-18T19:03:48.832Z,14.30
2022-10-18T19:06:27.287Z,14.30
2022-10-18T19:09:01.734Z,14.30
2022-10-18T19:11:32.498Z,14.40
2022-10-18T19:14:03.679Z,14.40
2022-10-18T19:16:50.048Z,14.40
2022-10-18T19:19:19.678Z,14.40
2022-10-18T19:21:55.074Z,14.40
2022-10-18T19:24:23.757Z,14.40
2022-10-18T19:27:11.751Z,14.40
2022-10-18T19:29:40.522Z,14.40
2022-10-18T19:32:11.988Z,14.40
2022-10-18T19:34:39.225Z,14.30
2022-10-18T19:37:05.934Z,14.30
2022-10-18T19:39:34.830Z,14.30
2022-10-18T19:42:04.557Z,14.30
2022-10-18T19:44:33.190Z,14.30
2022-10-18T19:47:00.152Z,14.40
2022-10-18T19:49:28.667Z,14.30
2022-10-18T19:51:56.145Z,14.40
2022-10-18T19:54:23.050Z,14.30
2022-10-18T19:56:52.740Z,14.30
2022-10-18T19:59:19.924Z,14.30
2022-10-18T20:01:46.742Z,14.30
2022-10-18T20:04:14.571Z,14.30
2022-10-18T20:06:42.002Z,14.30
2022-10-18T20:09:12.360Z,14.30
2022-10-18T20:11:44.489Z,14.20
2022-10-18T20:14:11.402Z,14.20
2022-10-18T20:16:38.181Z,14.20
2022-10-18T20:19:07.716Z,14.20
2022-10-18T20:21:40.161Z,14.10
2022-10-18T20:24:08.223Z,14.10
2022-10-18T20:26:35.990Z,14.10
2022-10-18T20:29:05.861Z,14.10
2022-10-18T20:31:36.171Z,14.00
2022-10-18T20:34:08.865Z,13.90
2022-10-18T20:36:36.657Z,13.90
2022-10-18T20:39:07.774Z,13.90
2022-10-18T20:41:37.046Z,13.90
2022-10-18T20:44:11.623Z,13.90
2022-10-18T20:46:38.881Z,13.90
2022-10-18T20:49:07.281Z,13.80
2022-10-18T20:51:35.023Z,13.80
2022-10-18T20:56:34.363Z,13.80
2022-10-18T20:59:03.922Z,13.80
2022-10-18T21:01:32.886Z,13.70
2022-10-18T21:04:05.694Z,13.70
2022-10-18T21:06:38.237Z,13.70
2022-10-18T21:09:13.809Z,13.70
2022-10-18T21:11:43.402Z,13.70
2022-10-18T21:14:16.086Z,13.60
2022-10-18T21:16:43.868Z,13.60
2022-10-18T21:19:25.651Z,13.60
2022-10-18T21:21:55.792Z,13.70
2022-10-18T21:24:24.130Z,13.60
2022-10-18T21:26:53.924Z,13.60
2022-10-18T21:29:22.630Z,13.60
2022-10-18T21:32:03.813Z,13.50
2022-10-18T21:34:30.565Z,13.60
2022-10-18T21:36:57.521Z,13.50
2022-10-18T21:41:56.322Z,13.50
2022-10-18T21:44:23.148Z,13.50
2022-10-18T21:46:50.714Z,13.50
2022-10-18T21:49:17.947Z,13.40
2022-10-18T21:51:44.809Z,13.40
2022-10-18T21:54:14.366Z,13.40
2022-10-18T21:56:41.206Z,13.30
2022-10-18T21:59:07.972Z,13.30
2022-10-18T22:01:37.662Z,13.30
2022-10-18T22:04:07.045Z,13.20
2022-10-18T22:09:08.166Z,13.10
2022-10-18T22:11:44.160Z,13.00
2022-10-18T22:14:11.137Z,13.00
2022-10-18T22:16:38.307Z,12.90
2022-10-18T22:19:06.537Z,12.90
2022-10-18T22:21:33.493Z,12.80
2022-10-18T22:24:03.686Z,12.70
2022-10-18T22:26:34.590Z,12.70
2022-10-18T22:29:07.845Z,12.60
2022-10-18T22:31:36.783Z,12.60
2022-10-18T22:34:08.757Z,12.50
2022-10-18T22:36:35.515Z,12.50
2022-10-18T22:39:02.835Z,12.50
2022-10-18T22:41:30.313Z,12.50
2022-10-18T22:43:58.567Z,12.50
2022-10-18T22:46:28.001Z,12.40
2022-10-18T22:48:54.967Z,12.40
2022-10-18T22:51:21.821Z,12.40
2022-10-18T22:53:48.954Z,12.40
2022-10-18T22:56:17.793Z,12.40
2022-10-18T22:58:44.701Z,12.40
2022-10-18T23:01:14.328Z,12.40
2022-10-18T23:03:41.448Z,12.40
2022-10-18T23:06:26.183Z,12.40
2022-10-18T23:08:54.684Z,12.40
2022-10-18T23:11:22.211Z,12.40
2022-10-18T23:13:49.391Z,12.40
2022-10-18T23:16:16.978Z,12.30
2022-10-18T23:18:43.803Z,12.40
2022-10-18T23:21:12.714Z,12.30
2022-10-18T23:23:41.466Z,12.30
2022-10-18T23:26:11.801Z,12.30
2022-10-18T23:28:41.705Z,12.20
2022-10-18T23:31:45.825Z,12.20
2022-10-18T23:34:12.614Z,12.20
2022-10-18T23:36:39.383Z,12.10
2022-10-18T23:39:06.966Z,12.00
2022-10-18T23:41:33.946Z,12.00
2022-10-18T23:44:00.962Z,12.00
2022-10-18T23:46:28.515Z,12.00
2022-10-18T23:48:55.251Z,11.90
2022-10-18T23:51:22.044Z,11.90
2022-10-18T23:53:48.825Z,11.80
2022-10-18T23:56:16.511Z,11.80
2022-10-18T23:58:44.969Z,11.70
